createdAt,value
2023-02-27T00:00:43.527Z,73.34
2023-02-27T00:03:30.626Z,73.42
2023-02-27T00:06:02.805Z,72.49
2023-02-27T00:08:35.015Z,72.23
2023-02-27T00:11:07.687Z,72.21
2023-02-27T00:13:40.134Z,71.97
2023-02-27T00:16:13.031Z,71.83
2023-02-27T00:18:45.582Z,71.69
2023-02-27T00:21:17.942Z,72.05
2023-02-27T00:23:51.703Z,71.93
2023-02-27T00:26:23.897Z,71.76
2023-02-27T00:28:56.199Z,71.67
2023-02-27T00:31:29.131Z,71.70
2023-02-27T00:34:02.068Z,71.64
2023-02-27T00:36:34.235Z,71.59
2023-02-27T00:39:07.842Z,71.36
2023-02-27T00:41:40.213Z,71.16
2023-02-27T00:44:12.485Z,70.98
2023-02-27T00:46:45.088Z,70.73
2023-02-27T00:49:17.627Z,70.98
2023-02-27T00:51:50.821Z,71.19
2023-02-27T00:54:22.938Z,71.19
2023-02-27T00:56:55.007Z,71.46
2023-02-27T00:59:27.220Z,71.21
2023-02-27T01:01:59.740Z,70.86
2023-02-27T01:04:33.824Z,71.01
2023-02-27T01:07:06.467Z,70.70
2023-02-27T01:09:41.262Z,70.55
2023-02-27T01:12:13.445Z,70.77
2023-02-27T01:14:45.522Z,70.70
2023-02-27T01:17:17.793Z,70.84
2023-02-27T01:19:50.012Z,71.05
2023-02-27T01:22:22.525Z,71.14
2023-02-27T01:24:56.021Z,71.30
2023-02-27T01:27:28.413Z,71.30
2023-02-27T01:30:01.074Z,71.98
2023-02-27T01:32:33.537Z,72.32
2023-02-27T01:35:06.495Z,72.20
2023-02-27T01:37:38.976Z,71.94
2023-02-27T01:40:13.429Z,71.61
2023-02-27T01:42:46.946Z,71.47
2023-02-27T01:45:37.155Z,71.41
2023-02-27T01:48:18.480Z,71.54
2023-02-27T01:50:56.183Z,71.36
2023-02-27T01:53:30.706Z,71.41
2023-02-27T01:56:07.511Z,71.14
2023-02-27T01:58:40.429Z,71.58
2023-02-27T02:01:13.159Z,71.74
2023-02-27T02:03:49.536Z,71.69
2023-02-27T02:06:20.416Z,71.93
2023-02-27T02:08:56.143Z,71.62
2023-02-27T02:11:30.009Z,72.10
2023-02-27T02:14:04.018Z,72.51
2023-02-27T02:16:55.390Z,72.87
2023-02-27T02:20:11.144Z,72.71
2023-02-27T02:23:22.866Z,72.60
2023-02-27T02:26:19.877Z,72.29
2023-02-27T02:29:22.597Z,72.09
2023-02-27T02:32:24.534Z,71.82
2023-02-27T02:35:25.097Z,71.90
2023-02-27T02:38:41.996Z,71.63
2023-02-27T02:41:21.509Z,71.70
2023-02-27T02:44:02.538Z,71.34
2023-02-27T02:46:43.321Z,71.37
2023-02-27T02:49:27.530Z,71.10
2023-02-27T02:52:05.872Z,71.27
2023-02-27T02:54:43.672Z,71.49
2023-02-27T02:57:21.021Z,71.54
2023-02-27T02:59:59.272Z,71.25
2023-02-27T03:02:37.032Z,71.63
2023-02-27T03:05:14.982Z,72.06
2023-02-27T03:07:51.266Z,72.38
2023-02-27T03:10:28.524Z,72.70
2023-02-27T03:13:04.142Z,72.11
2023-02-27T03:15:42.031Z,71.94
2023-02-27T03:18:20.960Z,71.60
2023-02-27T03:20:57.284Z,71.29
2023-02-27T03:23:31.751Z,71.24
2023-02-27T03:26:05.719Z,71.02
2023-02-27T03:28:42.239Z,70.84
2023-02-27T03:31:21.395Z,70.73
2023-02-27T03:34:01.446Z,70.78
2023-02-27T03:36:45.667Z,70.76
2023-02-27T03:39:28.651Z,70.77
2023-02-27T03:42:11.509Z,70.76
2023-02-27T03:45:21.575Z,70.56
2023-02-27T03:47:54.513Z,70.67
2023-02-27T03:50:26.959Z,70.34
2023-02-27T03:53:00.423Z,70.26
2023-02-27T03:55:37.218Z,70.14
2023-02-27T03:58:09.685Z,70.16
2023-02-27T04:00:42.156Z,69.89
2023-02-27T04:03:14.795Z,70.09
2023-02-27T04:05:47.412Z,70.07
2023-02-27T04:08:39.360Z,70.31
2023-02-27T04:11:35.945Z,70.26
2023-02-27T04:14:29.110Z,70.20
2023-02-27T04:17:16.077Z,70.62
2023-02-27T04:20:30.773Z,71.44
2023-02-27T04:23:08.364Z,71.50
2023-02-27T04:25:58.887Z,71.46
2023-02-27T04:28:42.618Z,71.13
2023-02-27T04:31:24.793Z,70.90
2023-02-27T04:34:02.480Z,71.07
2023-02-27T04:36:42.244Z,71.17
2023-02-27T04:39:23.274Z,70.93
2023-02-27T04:42:01.372Z,70.70
2023-02-27T04:44:37.565Z,70.53
2023-02-27T04:47:13.423Z,70.52
2023-02-27T04:49:49.643Z,70.56
2023-02-27T04:52:26.399Z,70.70
2023-02-27T04:55:06.684Z,70.37
2023-02-27T04:57:44.166Z,70.53
2023-02-27T05:00:20.890Z,70.50
2023-02-27T05:02:58.287Z,70.38
2023-02-27T05:05:35.161Z,70.59
2023-02-27T05:08:12.448Z,70.31
2023-02-27T05:10:50.915Z,70.58
2023-02-27T05:13:27.543Z,70.52
2023-02-27T05:16:04.771Z,70.37
2023-02-27T05:18:37.406Z,70.54
2023-02-27T05:21:17.395Z,70.87
2023-02-27T05:23:56.828Z,71.19
2023-02-27T05:26:42.305Z,71.82
2023-02-27T05:29:25.629Z,71.91
2023-02-27T05:32:05.847Z,71.32
2023-02-27T05:34:45.294Z,70.92
2023-02-27T05:37:23.233Z,70.64
2023-02-27T05:39:55.982Z,70.53
2023-02-27T05:42:32.985Z,70.38
2023-02-27T05:45:09.294Z,70.24
2023-02-27T05:47:43.391Z,70.32
2023-02-27T05:50:19.107Z,70.20
2023-02-27T05:52:53.041Z,70.37
2023-02-27T05:55:29.338Z,70.31
2023-02-27T05:58:08.037Z,70.24
2023-02-27T06:00:44.267Z,70.28
2023-02-27T06:03:17.099Z,70.29
2023-02-27T06:05:53.164Z,70.17
2023-02-27T06:08:25.747Z,70.34
2023-02-27T06:10:58.285Z,70.38
2023-02-27T06:13:30.842Z,70.19
2023-02-27T06:16:03.274Z,70.31
2023-02-27T06:18:35.484Z,70.38
2023-02-27T06:21:08.062Z,70.58
2023-02-27T06:23:40.435Z,70.51
2023-02-27T06:26:14.559Z,70.56
2023-02-27T06:28:46.828Z,70.92
2023-02-27T06:31:19.201Z,70.95
2023-02-27T06:33:51.615Z,71.09
2023-02-27T06:36:31.882Z,71.29
2023-02-27T06:39:05.331Z,71.02
2023-02-27T06:41:37.910Z,70.77
2023-02-27T06:44:10.176Z,70.47
2023-02-27T06:46:42.487Z,70.47
2023-02-27T06:49:14.818Z,70.36
2023-02-27T06:51:47.614Z,70.16
2023-02-27T06:54:19.780Z,70.45
2023-02-27T06:56:52.645Z,70.36
2023-02-27T06:59:25.125Z,70.44
2023-02-27T07:01:59.346Z,70.34
2023-02-27T07:04:31.932Z,70.34
2023-02-27T07:07:35.711Z,69.77
2023-02-27T07:09:56.640Z,70.03
2023-02-27T07:12:28.900Z,70.19
2023-02-27T07:15:02.600Z,70.12
2023-02-27T07:17:35.476Z,70.41
2023-02-27T07:20:10.753Z,70.40
2023-02-27T07:22:43.963Z,70.14
2023-02-27T07:25:16.400Z,70.38
2023-02-27T07:27:50.932Z,71.04
2023-02-27T07:30:23.496Z,71.48
2023-02-27T07:33:04.073Z,71.77
2023-02-27T07:35:36.681Z,71.37
2023-02-27T07:38:09.883Z,71.18
2023-02-27T07:40:43.377Z,71.09
2023-02-27T07:43:16.586Z,71.23
2023-02-27T07:45:51.288Z,70.98
2023-02-27T07:48:24.428Z,71.06
2023-02-27T07:50:56.862Z,70.70
2023-02-27T07:53:31.056Z,70.75
2023-02-27T07:56:03.428Z,70.58
2023-02-27T07:58:36.738Z,70.90
2023-02-27T08:01:09.135Z,70.97
2023-02-27T08:03:42.120Z,70.65
2023-02-27T08:06:14.563Z,71.25
2023-02-27T08:08:46.941Z,71.54
2023-02-27T08:11:19.817Z,71.95
2023-02-27T08:14:01.292Z,72.28
2023-02-27T08:16:35.247Z,71.79
2023-02-27T08:19:07.703Z,71.31
2023-02-27T08:21:40.376Z,71.37
2023-02-27T08:24:12.948Z,71.01
2023-02-27T08:26:45.475Z,71.24
2023-02-27T08:29:17.998Z,70.90
2023-02-27T08:31:50.867Z,70.84
2023-02-27T08:34:42.659Z,71.09
2023-02-27T08:37:18.213Z,71.13
2023-02-27T08:39:50.542Z,71.09
2023-02-27T08:42:26.900Z,71.00
2023-02-27T08:45:01.219Z,70.88
2023-02-27T08:47:34.615Z,70.93
2023-02-27T08:50:08.534Z,70.76
2023-02-27T08:52:41.776Z,70.75
2023-02-27T08:55:14.533Z,71.07
2023-02-27T08:58:06.311Z,71.41
2023-02-27T09:00:40.112Z,71.64
2023-02-27T09:03:14.341Z,71.55
2023-02-27T09:05:46.726Z,71.63
2023-02-27T09:08:21.305Z,71.48
2023-02-27T09:10:57.813Z,70.79
2023-02-27T09:13:33.290Z,70.50
2023-02-27T09:16:06.125Z,70.66
2023-02-27T09:18:44.242Z,70.27
2023-02-27T09:21:18.301Z,70.47
2023-02-27T09:23:54.239Z,69.92
2023-02-27T09:26:43.366Z,70.06
2023-02-27T09:29:18.398Z,69.96
2023-02-27T09:31:55.929Z,69.91
2023-02-27T09:34:34.187Z,70.07
2023-02-27T09:37:06.773Z,70.49
2023-02-27T09:39:39.159Z,70.57
2023-02-27T09:42:21.152Z,71.08
2023-02-27T09:44:59.288Z,71.48
2023-02-27T09:47:39.463Z,72.08
2023-02-27T09:50:30.166Z,72.43
2023-02-27T09:53:04.018Z,73.18
2023-02-27T09:55:40.564Z,73.21
2023-02-27T09:58:33.355Z,73.09
2023-02-27T10:01:13.194Z,72.49
2023-02-27T10:04:18.525Z,72.23
2023-02-27T10:06:54.285Z,72.37
2023-02-27T10:09:41.894Z,72.36
2023-02-27T10:12:54.736Z,72.08
2023-02-27T10:15:32.742Z,71.90
2023-02-27T10:18:25.539Z,71.73
2023-02-27T10:21:03.049Z,71.96
2023-02-27T10:23:41.678Z,72.07
2023-02-27T10:26:24.105Z,71.97
2023-02-27T10:28:57.100Z,72.21
2023-02-27T10:31:36.255Z,72.27
2023-02-27T10:34:14.983Z,72.32
2023-02-27T10:36:49.046Z,72.20
2023-02-27T10:39:23.111Z,71.96
2023-02-27T10:42:04.363Z,71.75
2023-02-27T10:44:36.793Z,71.62
2023-02-27T10:47:26.628Z,71.48
2023-02-27T10:50:00.522Z,70.76
2023-02-27T10:52:37.189Z,70.88
2023-02-27T10:55:25.910Z,70.58
2023-02-27T10:57:59.254Z,69.38
2023-02-27T11:00:42.478Z,68.29
2023-02-27T11:03:29.095Z,68.32
2023-02-27T11:06:11.584Z,66.75
2023-02-27T11:08:44.050Z,67.04
2023-02-27T11:11:17.270Z,66.85
2023-02-27T11:13:49.646Z,67.44
2023-02-27T11:16:22.984Z,66.20
2023-02-27T11:18:57.493Z,65.21
2023-02-27T11:21:31.620Z,66.74
2023-02-27T11:24:07.878Z,66.14
2023-02-27T11:26:42.797Z,66.02
2023-02-27T11:29:20.446Z,66.06
2023-02-27T11:31:56.014Z,66.58
2023-02-27T11:34:32.755Z,66.29
2023-02-27T11:37:08.552Z,66.42
2023-02-27T11:39:52.588Z,66.06
2023-02-27T11:43:02.945Z,66.60
2023-02-27T11:46:11.914Z,66.67
2023-02-27T11:48:38.713Z,67.00
2023-02-27T11:51:30.934Z,66.80
2023-02-27T11:54:19.488Z,66.14
2023-02-27T11:56:53.927Z,65.89
2023-02-27T11:59:40.465Z,65.67
2023-02-27T12:02:17.233Z,65.97
2023-02-27T12:04:55.848Z,64.66
2023-02-27T12:07:36.819Z,64.81
2023-02-27T12:10:17.407Z,64.15
2023-02-27T12:12:52.502Z,64.73
2023-02-27T12:15:32.743Z,64.72
2023-02-27T12:18:14.706Z,64.16
2023-02-27T12:20:56.432Z,63.23
2023-02-27T12:23:36.514Z,61.63
2023-02-27T12:26:14.399Z,61.00
2023-02-27T12:28:56.599Z,61.21
2023-02-27T12:31:37.251Z,60.82
2023-02-27T12:34:18.983Z,59.90
2023-02-27T12:36:53.165Z,59.42
2023-02-27T12:39:28.933Z,60.24
2023-02-27T12:42:32.984Z,59.84
2023-02-27T12:45:30.646Z,59.68
2023-02-27T12:48:14.336Z,60.44
2023-02-27T12:51:03.239Z,60.78
2023-02-27T12:53:52.108Z,60.07
2023-02-27T12:56:28.775Z,59.57
2023-02-27T12:59:08.083Z,60.61
2023-02-27T13:01:49.857Z,60.78
2023-02-27T13:04:38.252Z,60.71
2023-02-27T13:07:21.022Z,61.27
2023-02-27T13:09:57.235Z,61.43
2023-02-27T13:12:37.925Z,61.55
2023-02-27T13:15:23.144Z,61.72
2023-02-27T13:17:59.925Z,61.69
2023-02-27T13:20:40.533Z,61.69
2023-02-27T13:23:20.005Z,61.64
2023-02-27T13:25:56.088Z,60.21
2023-02-27T13:28:30.409Z,59.99
2023-02-27T13:31:11.547Z,60.72
2023-02-27T13:33:49.903Z,60.29
2023-02-27T13:36:29.442Z,60.23
2023-02-27T13:39:01.801Z,58.88
2023-02-27T13:41:41.669Z,58.78
2023-02-27T13:44:42.409Z,59.43
2023-02-27T13:47:51.960Z,58.97
2023-02-27T13:50:52.079Z,58.19
2023-02-27T13:53:24.749Z,57.54
2023-02-27T13:56:19.144Z,55.98
2023-02-27T13:58:52.224Z,54.81
2023-02-27T14:01:29.079Z,50.55
2023-02-27T14:04:06.144Z,48.51
2023-02-27T14:06:47.944Z,46.67
2023-02-27T14:09:23.351Z,45.38
2023-02-27T14:12:00.730Z,44.32
2023-02-27T14:14:47.078Z,43.47
2023-02-27T14:17:45.202Z,39.91
2023-02-27T14:20:53.008Z,43.50
2023-02-27T14:23:28.033Z,45.66
2023-02-27T14:26:07.387Z,47.17
2023-02-27T14:28:49.012Z,46.15
2023-02-27T14:31:27.436Z,47.11
2023-02-27T14:34:05.492Z,49.04
2023-02-27T14:36:45.009Z,48.40
2023-02-27T14:39:27.463Z,48.41
2023-02-27T14:42:27.409Z,49.12
2023-02-27T14:45:00.029Z,50.17
2023-02-27T14:47:36.234Z,51.23
2023-02-27T14:50:22.988Z,51.16
2023-02-27T14:52:55.590Z,51.24
2023-02-27T14:55:32.277Z,51.59
2023-02-27T14:58:19.428Z,51.80
2023-02-27T15:01:04.760Z,52.28
2023-02-27T15:03:42.322Z,52.76
2023-02-27T15:06:20.772Z,52.96
2023-02-27T15:08:57.271Z,53.07
2023-02-27T15:11:30.169Z,53.26
2023-02-27T15:14:06.627Z,53.49
2023-02-27T15:16:43.450Z,53.58
2023-02-27T15:19:19.694Z,54.05
2023-02-27T15:21:54.139Z,54.49
2023-02-27T15:24:35.243Z,54.70
2023-02-27T15:27:17.993Z,55.22
2023-02-27T15:29:53.457Z,55.48
2023-02-27T15:32:30.653Z,55.92
2023-02-27T15:35:06.242Z,56.07
2023-02-27T15:37:39.426Z,56.58
2023-02-27T15:40:21.752Z,56.74
2023-02-27T15:42:56.424Z,56.64
2023-02-27T15:45:32.223Z,57.17
2023-02-27T15:48:06.440Z,57.32
2023-02-27T15:50:42.811Z,57.21
2023-02-27T15:53:18.501Z,57.55
2023-02-27T15:55:55.372Z,57.30
2023-02-27T15:58:30.742Z,57.71
2023-02-27T16:01:06.417Z,57.97
2023-02-27T16:03:44.331Z,58.14
2023-02-27T16:06:23.407Z,58.37
2023-02-27T16:08:58.241Z,58.73
2023-02-27T16:11:33.111Z,58.27
2023-02-27T16:14:06.178Z,58.57
2023-02-27T16:16:39.355Z,58.75
2023-02-27T16:19:29.453Z,58.81
2023-02-27T16:22:14.261Z,59.35
2023-02-27T16:24:47.423Z,59.20
2023-02-27T16:27:24.883Z,59.64
2023-02-27T16:30:03.302Z,60.13
2023-02-27T16:32:44.322Z,60.57
2023-02-27T16:35:24.092Z,60.21
2023-02-27T16:38:05.447Z,60.48
2023-02-27T16:40:37.891Z,61.28
2023-02-27T16:43:15.393Z,60.82
2023-02-27T16:45:56.479Z,61.48
2023-02-27T16:48:28.885Z,61.42
2023-02-27T16:51:01.254Z,61.19
2023-02-27T16:53:33.494Z,61.66
2023-02-27T16:56:06.212Z,61.73
2023-02-27T16:58:38.894Z,61.45
2023-02-27T17:01:13.747Z,61.39
2023-02-27T17:03:47.916Z,61.05
2023-02-27T17:06:20.672Z,61.74
2023-02-27T17:08:52.877Z,61.75
2023-02-27T17:11:25.758Z,61.53
2023-02-27T17:13:57.926Z,61.46
2023-02-27T17:16:31.507Z,61.36
2023-02-27T17:19:04.259Z,61.67
2023-02-27T17:21:36.802Z,61.59
2023-02-27T17:24:10.291Z,61.45
2023-02-27T17:26:44.929Z,61.60
2023-02-27T17:29:17.716Z,61.51
2023-02-27T17:31:54.186Z,61.31
2023-02-27T17:34:27.567Z,61.95
2023-02-27T17:36:59.836Z,61.81
2023-02-27T17:39:33.922Z,61.42
2023-02-27T17:42:06.479Z,61.45
2023-02-27T17:44:39.515Z,61.41
2023-02-27T17:47:11.721Z,61.63
2023-02-27T17:49:43.892Z,61.41
2023-02-27T17:52:16.294Z,61.75
2023-02-27T17:54:48.908Z,61.96
2023-02-27T17:57:23.891Z,61.91
2023-02-27T17:59:56.540Z,61.83
2023-02-27T18:02:29.886Z,62.24
2023-02-27T18:05:07.557Z,62.24
2023-02-27T18:07:40.474Z,61.95
2023-02-27T18:10:16.038Z,61.87
2023-02-27T18:12:48.586Z,62.17
2023-02-27T18:15:21.274Z,61.68
2023-02-27T18:17:56.038Z,61.84
2023-02-27T18:20:33.691Z,61.71
2023-02-27T18:23:06.168Z,61.96
2023-02-27T18:25:42.782Z,61.97
2023-02-27T18:28:15.475Z,62.07
2023-02-27T18:30:48.079Z,61.94
2023-02-27T18:33:20.988Z,62.08
2023-02-27T18:35:53.996Z,62.03
2023-02-27T18:38:29.570Z,61.95
2023-02-27T18:41:09.548Z,62.34
2023-02-27T18:43:44.579Z,62.29
2023-02-27T18:46:21.410Z,62.60
2023-02-27T18:48:54.069Z,62.62
2023-02-27T18:51:28.766Z,62.91
2023-02-27T18:54:04.615Z,62.85
2023-02-27T18:56:39.141Z,63.20
2023-02-27T18:59:12.508Z,62.98
2023-02-27T19:01:44.594Z,62.87
2023-02-27T19:04:21.723Z,63.19
2023-02-27T19:06:54.164Z,63.37
2023-02-27T19:09:34.295Z,63.22
2023-02-27T19:12:11.553Z,63.09
2023-02-27T19:14:44.276Z,63.30
2023-02-27T19:17:16.705Z,63.23
2023-02-27T19:19:49.008Z,63.27
2023-02-27T19:22:21.648Z,63.37
2023-02-27T19:24:58.729Z,63.30
2023-02-27T19:27:31.480Z,62.87
2023-02-27T19:30:05.399Z,62.99
2023-02-27T19:32:38.409Z,62.97
2023-02-27T19:35:15.583Z,62.95
2023-02-27T19:37:53.780Z,63.19
2023-02-27T19:40:28.757Z,63.05
2023-02-27T19:43:01.217Z,63.21
2023-02-27T19:45:33.981Z,62.83
2023-02-27T19:48:06.639Z,62.37
2023-02-27T19:50:40.363Z,62.45
2023-02-27T19:53:13.581Z,62.58
2023-02-27T19:55:48.551Z,62.33
2023-02-27T19:58:20.963Z,62.41
2023-02-27T20:00:53.421Z,62.44
2023-02-27T20:03:26.564Z,62.49
2023-02-27T20:06:01.741Z,62.57
2023-02-27T20:08:39.393Z,62.49
2023-02-27T20:11:12.853Z,62.50
2023-02-27T20:13:47.677Z,63.04
2023-02-27T20:16:23.732Z,62.77
2023-02-27T20:18:56.707Z,62.48
2023-02-27T20:21:30.289Z,62.16
2023-02-27T20:24:06.802Z,62.73
2023-02-27T20:26:38.224Z,62.45
2023-02-27T20:29:20.120Z,62.60
2023-02-27T20:32:04.475Z,62.12
2023-02-27T20:35:00.297Z,62.26
2023-02-27T20:37:37.929Z,61.97
2023-02-27T20:40:14.668Z,61.81
2023-02-27T20:42:50.506Z,61.81
2023-02-27T20:45:26.183Z,61.72
2023-02-27T20:48:01.632Z,61.59
2023-02-27T20:50:38.839Z,61.39
2023-02-27T20:53:12.020Z,61.49
2023-02-27T20:55:50.518Z,61.53
2023-02-27T20:58:29.242Z,61.27
2023-02-27T21:01:04.430Z,61.50
2023-02-27T21:03:39.832Z,61.43
2023-02-27T21:06:17.067Z,61.69
2023-02-27T21:08:55.312Z,61.44
2023-02-27T21:11:33.437Z,61.32
2023-02-27T21:14:11.033Z,61.46
2023-02-27T21:16:43.249Z,61.43
2023-02-27T21:19:25.163Z,61.52
2023-02-27T21:21:57.707Z,61.23
2023-02-27T21:24:40.779Z,61.69
2023-02-27T21:27:21.359Z,61.57
2023-02-27T21:30:00.282Z,61.57
2023-02-27T21:32:37.637Z,61.52
2023-02-27T21:35:11.392Z,61.58
2023-02-27T21:37:46.977Z,61.58
2023-02-27T21:40:27.847Z,61.80
2023-02-27T21:43:01.164Z,61.92
2023-02-27T21:45:38.841Z,61.67
2023-02-27T21:48:17.553Z,61.37
2023-02-27T21:50:50.711Z,61.64
2023-02-27T21:53:23.263Z,61.55
2023-02-27T21:56:01.812Z,61.14
2023-02-27T21:58:34.492Z,61.44
2023-02-27T22:01:39.000Z,61.49
2023-02-27T22:04:24.594Z,61.84
2023-02-27T22:06:56.808Z,62.18
2023-02-27T22:09:34.087Z,62.19
2023-02-27T22:12:09.261Z,62.02
2023-02-27T22:14:52.263Z,62.32
2023-02-27T22:17:32.548Z,62.45
2023-02-27T22:20:18.129Z,62.64
2023-02-27T22:22:53.001Z,62.62
2023-02-27T22:25:29.638Z,62.54
2023-02-27T22:28:05.014Z,62.80
2023-02-27T22:30:41.541Z,62.43
2023-02-27T22:33:16.006Z,62.70
2023-02-27T22:35:48.358Z,62.67
2023-02-27T22:38:26.701Z,62.91
2023-02-27T22:41:04.382Z,63.04
2023-02-27T22:43:38.445Z,62.93
2023-02-27T22:46:11.686Z,63.13
2023-02-27T22:48:44.930Z,63.22
2023-02-27T22:51:17.813Z,63.13
2023-02-27T22:53:49.974Z,63.09
2023-02-27T22:56:22.238Z,63.37
2023-02-27T22:58:54.485Z,63.31
2023-02-27T23:01:29.396Z,63.42
2023-02-27T23:04:03.649Z,63.66
2023-02-27T23:06:38.961Z,63.38
2023-02-27T23:09:14.841Z,63.38
2023-02-27T23:11:47.857Z,63.60
2023-02-27T23:14:21.128Z,63.60
2023-02-27T23:16:53.534Z,63.74
2023-02-27T23:19:25.965Z,63.94
2023-02-27T23:21:58.339Z,63.86
2023-02-27T23:24:30.720Z,63.82
2023-02-27T23:27:19.619Z,63.72
2023-02-27T23:29:58.126Z,63.99
2023-02-27T23:32:30.553Z,64.19
2023-02-27T23:35:03.246Z,64.20
2023-02-27T23:37:35.430Z,64.69
2023-02-27T23:40:09.669Z,65.20
2023-02-27T23:42:41.934Z,65.83
2023-02-27T23:45:24.206Z,66.04
2023-02-27T23:47:58.163Z,65.89
2023-02-27T23:50:32.576Z,65.46
2023-02-27T23:53:06.210Z,65.23
2023-02-27T23:55:39.572Z,64.76
2023-02-27T23:58:13.345Z,64.50
